createdAt,value
2018-10-01T00:00:46.061Z,1014.22
2018-10-01T00:02:13.425Z,1014.22
2018-10-01T00:03:40.805Z,1014.20
2018-10-01T00:05:08.148Z,1014.18
2018-10-01T00:06:35.569Z,1014.17
2018-10-01T00:08:02.687Z,1014.17
2018-10-01T00:09:30.185Z,1014.17
2018-10-01T00:10:57.581Z,1014.15
2018-10-01T00:12:24.215Z,1014.15
2018-10-01T00:13:51.517Z,1014.12
2018-10-01T00:15:18.254Z,1014.11
2018-10-01T00:16:45.433Z,1014.10
2018-10-01T00:18:12.581Z,1014.08
2018-10-01T00:19:40.104Z,1014.07
2018-10-01T00:21:07.112Z,1014.08
2018-10-01T00:22:34.174Z,1014.09
2018-10-01T00:24:00.832Z,1014.08
2018-10-01T00:25:28.120Z,1014.05
2018-10-01T00:26:55.607Z,1014.04
2018-10-01T00:28:22.371Z,1014.03
2018-10-01T00:29:49.691Z,1014.06
2018-10-01T00:31:17.027Z,1014.06
2018-10-01T00:32:44.289Z,1014.07
2018-10-01T00:34:11.413Z,1014.06
2018-10-01T00:35:38.482Z,1014.05
2018-10-01T00:37:05.855Z,1014.03
2018-10-01T00:38:32.622Z,1014.02
2018-10-01T00:39:59.816Z,1014.01
2018-10-01T00:41:27.196Z,1013.98
2018-10-01T00:42:54.597Z,1013.95
2018-10-01T00:44:21.997Z,1013.93
2018-10-01T00:45:49.213Z,1013.92
2018-10-01T00:47:16.162Z,1013.91
2018-10-01T00:48:43.112Z,1013.90
2018-10-01T00:50:10.237Z,1013.90
2018-10-01T00:51:37.593Z,1013.93
2018-10-01T00:53:04.387Z,1013.91
2018-10-01T00:54:31.662Z,1013.89
2018-10-01T00:55:58.946Z,1013.93
2018-10-01T00:57:26.405Z,1013.94
2018-10-01T00:58:53.443Z,1013.95
2018-10-01T01:00:20.785Z,1013.96
2018-10-01T01:01:47.675Z,1013.94
2018-10-01T01:03:14.720Z,1013.94
2018-10-01T01:04:42.049Z,1013.95
2018-10-01T01:06:09.139Z,1013.96
2018-10-01T01:07:36.317Z,1013.96
2018-10-01T01:09:03.787Z,1013.94
2018-10-01T01:10:31.155Z,1013.93
2018-10-01T01:11:57.756Z,1013.94
2018-10-01T01:13:24.638Z,1013.93
2018-10-01T01:14:51.835Z,1013.94
2018-10-01T01:16:19.221Z,1013.96
2018-10-01T01:17:46.453Z,1014.00
2018-10-01T01:19:13.698Z,1014.03
2018-10-01T01:20:40.744Z,1014.06
2018-10-01T01:22:08.225Z,1014.03
2018-10-01T01:23:34.929Z,1014.03
2018-10-01T01:25:01.560Z,1014.01
2018-10-01T01:26:28.739Z,1013.98
2018-10-01T01:27:55.874Z,1013.98
2018-10-01T01:29:23.315Z,1013.99
2018-10-01T01:30:50.583Z,1014.00
2018-10-01T01:32:17.840Z,1013.99
2018-10-01T01:33:45.119Z,1013.98
2018-10-01T01:35:12.368Z,1013.99
2018-10-01T01:36:39.149Z,1013.97
2018-10-01T01:38:06.564Z,1013.93
2018-10-01T01:39:33.840Z,1013.89
2018-10-01T01:41:01.191Z,1013.89
2018-10-01T01:42:28.673Z,1013.89
2018-10-01T01:43:55.924Z,1013.87
2018-10-01T01:45:23.273Z,1013.88
2018-10-01T01:46:50.415Z,1013.88
2018-10-01T01:48:17.880Z,1013.88
2018-10-01T01:49:45.250Z,1013.88
2018-10-01T01:51:12.498Z,1013.86
2018-10-01T01:52:39.880Z,1013.85
2018-10-01T01:54:07.268Z,1013.84
2018-10-01T01:55:34.239Z,1013.85
2018-10-01T01:57:01.222Z,1013.83
2018-10-01T01:58:28.536Z,1013.81
2018-10-01T01:59:55.916Z,1013.79
2018-10-01T02:01:23.148Z,1013.76
2018-10-01T02:02:49.925Z,1013.75
2018-10-01T02:04:17.148Z,1013.76
2018-10-01T02:05:44.348Z,1013.75
2018-10-01T02:07:11.708Z,1013.75
2018-10-01T02:08:38.831Z,1013.73
2018-10-01T02:10:06.179Z,1013.73
2018-10-01T02:11:33.539Z,1013.72
2018-10-01T02:13:00.795Z,1013.69
2018-10-01T02:14:27.917Z,1013.66
2018-10-01T02:15:54.858Z,1013.64
2018-10-01T02:17:21.837Z,1013.63
2018-10-01T02:18:48.471Z,1013.62
2018-10-01T02:20:15.522Z,1013.61
2018-10-01T02:21:42.422Z,1013.56
2018-10-01T02:23:09.459Z,1013.54
2018-10-01T02:24:35.974Z,1013.52
2018-10-01T02:26:02.743Z,1013.52
2018-10-01T02:27:29.833Z,1013.50
2018-10-01T02:28:56.798Z,1013.52
2018-10-01T02:30:24.002Z,1013.50
2018-10-01T02:31:51.228Z,1013.46
2018-10-01T02:33:18.523Z,1013.45
2018-10-01T02:34:45.493Z,1013.45
2018-10-01T02:36:12.345Z,1013.44
2018-10-01T02:37:39.372Z,1013.46
2018-10-01T02:39:06.592Z,1013.47
2018-10-01T02:40:33.830Z,1013.44
2018-10-01T02:42:03.595Z,1013.43
2018-10-01T02:43:27.590Z,1013.45
2018-10-01T02:44:54.946Z,1013.42
2018-10-01T02:46:22.133Z,1013.44
2018-10-01T02:47:49.520Z,1013.42
2018-10-01T02:49:16.524Z,1013.37
2018-10-01T02:50:43.920Z,1013.34
2018-10-01T02:52:11.066Z,1013.33
2018-10-01T02:53:38.641Z,1013.32
2018-10-01T02:55:05.749Z,1013.34
2018-10-01T02:56:33.257Z,1013.36
2018-10-01T02:58:00.484Z,1013.37
2018-10-01T02:59:27.949Z,1013.37
2018-10-01T03:00:55.422Z,1013.34
2018-10-01T03:02:22.220Z,1013.31
2018-10-01T03:03:49.593Z,1013.28
2018-10-01T03:05:16.790Z,1013.26
2018-10-01T03:06:44.106Z,1013.28
2018-10-01T03:08:11.416Z,1013.28
2018-10-01T03:09:38.619Z,1013.28
2018-10-01T03:11:06.009Z,1013.26
2018-10-01T03:12:33.360Z,1013.23
2018-10-01T03:14:00.705Z,1013.20
2018-10-01T03:15:27.514Z,1013.15
2018-10-01T03:16:54.919Z,1013.11
2018-10-01T03:18:22.204Z,1013.12
2018-10-01T03:19:49.638Z,1013.13
2018-10-01T03:21:16.789Z,1013.13
2018-10-01T03:22:44.083Z,1013.12
2018-10-01T03:24:11.374Z,1013.07
2018-10-01T03:25:38.458Z,1013.02
2018-10-01T03:27:05.801Z,1013.00
2018-10-01T03:28:33.113Z,1013.01
2018-10-01T03:30:00.578Z,1013.02
2018-10-01T03:31:27.237Z,1013.02
2018-10-01T03:32:54.596Z,1013.05
2018-10-01T03:34:21.260Z,1013.05
2018-10-01T03:35:48.681Z,1013.04
2018-10-01T03:37:15.809Z,1013.03
2018-10-01T03:38:42.963Z,1013.01
2018-10-01T03:40:10.101Z,1013.01
2018-10-01T03:41:37.129Z,1012.98
2018-10-01T03:43:03.763Z,1012.99
2018-10-01T03:44:31.078Z,1012.98
2018-10-01T03:45:57.791Z,1012.99
2018-10-01T03:47:25.206Z,1012.96
2018-10-01T03:48:51.964Z,1012.97
2018-10-01T03:50:19.271Z,1012.97
2018-10-01T03:51:46.533Z,1012.95
2018-10-01T03:53:13.802Z,1012.94
2018-10-01T03:54:40.734Z,1012.95
2018-10-01T03:56:07.650Z,1012.97
2018-10-01T03:57:34.547Z,1012.97
2018-10-01T03:59:01.970Z,1012.98
2018-10-01T04:00:29.434Z,1012.98
2018-10-01T04:01:55.992Z,1013.03
2018-10-01T04:03:23.338Z,1013.05
2018-10-01T04:04:50.772Z,1013.05
2018-10-01T04:06:17.529Z,1013.03
2018-10-01T04:07:44.791Z,1013.01
2018-10-01T04:09:12.409Z,1013.02
2018-10-01T04:10:39.448Z,1013.03
2018-10-01T04:12:06.707Z,1013.03
2018-10-01T04:13:33.700Z,1013.06
2018-10-01T04:15:01.015Z,1013.05
2018-10-01T04:16:28.257Z,1013.06
2018-10-01T04:17:55.736Z,1013.02
2018-10-01T04:19:22.956Z,1013.04
2018-10-01T04:20:50.234Z,1013.02
2018-10-01T04:22:17.139Z,1013.00
2018-10-01T04:23:44.309Z,1013.01
2018-10-01T04:25:11.672Z,1013.00
2018-10-01T04:26:38.783Z,1013.00
2018-10-01T04:28:06.199Z,1013.00
2018-10-01T04:29:33.123Z,1012.96
2018-10-01T04:30:59.545Z,1012.96
2018-10-01T04:32:26.248Z,1012.99
2018-10-01T04:33:53.762Z,1012.99
2018-10-01T04:35:20.950Z,1012.97
2018-10-01T04:36:47.913Z,1012.94
2018-10-01T04:38:15.223Z,1012.91
2018-10-01T04:39:42.507Z,1012.92
2018-10-01T04:41:09.656Z,1012.92
2018-10-01T04:42:37.075Z,1012.90
2018-10-01T04:44:04.426Z,1012.89
2018-10-01T04:45:31.468Z,1012.87
2018-10-01T04:46:58.887Z,1012.84
2018-10-01T04:48:25.712Z,1012.84
2018-10-01T04:49:53.083Z,1012.82
2018-10-01T04:51:19.805Z,1012.81
2018-10-01T04:52:47.092Z,1012.84
2018-10-01T04:54:14.292Z,1012.81
2018-10-01T04:55:41.224Z,1012.83
2018-10-01T04:57:08.417Z,1012.79
2018-10-01T04:58:35.277Z,1012.81
2018-10-01T05:00:02.473Z,1012.87
2018-10-01T05:01:29.849Z,1012.89
2018-10-01T05:02:56.662Z,1012.90
2018-10-01T05:04:23.960Z,1012.92
2018-10-01T05:05:51.126Z,1012.95
2018-10-01T05:07:18.278Z,1012.97
2018-10-01T05:08:45.479Z,1012.98
2018-10-01T05:10:12.714Z,1013.00
2018-10-01T05:11:39.846Z,1013.00
2018-10-01T05:13:07.174Z,1013.07
2018-10-01T05:14:33.673Z,1013.06
2018-10-01T05:16:01.022Z,1013.08
2018-10-01T05:17:28.350Z,1013.10
2018-10-01T05:18:55.705Z,1013.10
2018-10-01T05:20:22.747Z,1013.10
2018-10-01T05:21:49.962Z,1013.09
2018-10-01T05:23:17.250Z,1013.10
2018-10-01T05:24:44.512Z,1013.11
2018-10-01T05:26:11.739Z,1013.09
2018-10-01T05:27:38.679Z,1013.08
2018-10-01T05:29:05.941Z,1013.09
2018-10-01T05:30:33.279Z,1013.08
2018-10-01T05:32:03.637Z,1013.10
2018-10-01T05:33:28.031Z,1013.10
2018-10-01T05:34:55.657Z,1013.10
2018-10-01T05:36:22.893Z,1013.11
2018-10-01T05:37:50.121Z,1013.10
2018-10-01T05:39:17.604Z,1013.09
2018-10-01T05:40:44.901Z,1013.11
2018-10-01T05:42:12.198Z,1013.10
2018-10-01T05:43:38.962Z,1013.09
2018-10-01T05:45:06.275Z,1013.09
2018-10-01T05:46:33.582Z,1013.08
2018-10-01T05:48:00.930Z,1013.10
2018-10-01T05:49:28.145Z,1013.12
2018-10-01T05:50:55.476Z,1013.13
2018-10-01T05:52:22.711Z,1013.14
2018-10-01T05:53:49.756Z,1013.16
2018-10-01T05:55:16.928Z,1013.15
2018-10-01T05:56:44.191Z,1013.15
2018-10-01T05:58:11.547Z,1013.16
2018-10-01T05:59:38.649Z,1013.18
2018-10-01T06:01:05.929Z,1013.21
2018-10-01T06:02:33.300Z,1013.22
2018-10-01T06:04:00.384Z,1013.24
2018-10-01T06:05:27.289Z,1013.24
2018-10-01T06:06:54.565Z,1013.26
2018-10-01T06:08:21.859Z,1013.27
2018-10-01T06:09:48.705Z,1013.30
2018-10-01T06:11:16.214Z,1013.32
2018-10-01T06:12:43.634Z,1013.34
2018-10-01T06:14:10.898Z,1013.35
2018-10-01T06:15:38.421Z,1013.35
2018-10-01T06:17:05.909Z,1013.36
2018-10-01T06:18:33.220Z,1013.39
2018-10-01T06:20:00.570Z,1013.40
2018-10-01T06:21:27.659Z,1013.40
2018-10-01T06:22:55.095Z,1013.40
2018-10-01T06:24:22.456Z,1013.39
2018-10-01T06:25:49.426Z,1013.43
2018-10-01T06:27:16.148Z,1013.42
2018-10-01T06:28:43.514Z,1013.42
2018-10-01T06:30:10.884Z,1013.44
2018-10-01T06:31:38.064Z,1013.48
2018-10-01T06:33:04.673Z,1013.52
2018-10-01T06:34:32.007Z,1013.53
2018-10-01T06:35:59.192Z,1013.55
2018-10-01T06:37:26.505Z,1013.58
2018-10-01T06:38:53.994Z,1013.61
2018-10-01T06:40:21.381Z,1013.62
2018-10-01T06:41:48.784Z,1013.64
2018-10-01T06:43:16.082Z,1013.66
2018-10-01T06:44:46.122Z,1013.70
2018-10-01T06:46:10.411Z,1013.73
2018-10-01T09:25:16.069Z,1014.09
2018-10-01T09:26:42.829Z,1014.10
2018-10-01T09:28:09.936Z,1014.07
2018-10-01T09:29:37.370Z,1014.07
2018-10-01T09:31:04.289Z,1014.07
2018-10-01T09:32:31.701Z,1014.06
2018-10-01T09:33:58.998Z,1014.04
2018-10-01T09:35:26.469Z,1014.04
2018-10-01T09:36:53.934Z,1014.07
2018-10-01T09:38:21.470Z,1014.05
2018-10-01T09:39:48.678Z,1014.05
2018-10-01T09:41:16.094Z,1014.05
2018-10-01T09:42:43.427Z,1014.04
2018-10-01T09:44:10.803Z,1014.01
2018-10-01T09:45:38.152Z,1013.99
2018-10-01T09:47:05.667Z,1014.00
2018-10-01T09:48:33.175Z,1014.00
2018-10-01T09:50:00.604Z,1013.97
2018-10-01T09:51:28.082Z,1013.99
2018-10-01T09:52:55.233Z,1013.99
2018-10-01T09:54:22.668Z,1013.97
2018-10-01T09:55:49.959Z,1013.95
2018-10-01T09:57:17.319Z,1013.93
2018-10-01T09:58:44.754Z,1013.93
2018-10-01T10:00:12.178Z,1013.93
2018-10-01T10:01:39.458Z,1013.92
2018-10-01T10:03:06.971Z,1013.94
2018-10-01T10:04:34.326Z,1013.96
2018-10-01T10:06:01.514Z,1013.96
2018-10-01T10:07:28.731Z,1013.96
2018-10-01T10:08:56.250Z,1013.96
2018-10-01T10:10:23.525Z,1013.95
2018-10-01T10:11:51.103Z,1013.95
2018-10-01T10:13:18.469Z,1014.00
2018-10-01T10:14:45.812Z,1013.98
2018-10-01T10:16:13.125Z,1013.98
2018-10-01T10:17:40.178Z,1013.98
2018-10-01T10:19:06.942Z,1014.00
2018-10-01T10:20:34.396Z,1014.01
2018-10-01T10:22:01.225Z,1014.01
2018-10-01T10:23:28.435Z,1014.03
2018-10-01T10:24:55.819Z,1014.05
2018-10-01T10:26:23.241Z,1014.02
2018-10-01T10:27:50.772Z,1014.00
2018-10-01T10:29:18.134Z,1014.02
2018-10-01T10:30:45.627Z,1014.01
2018-10-01T10:32:12.925Z,1014.01
2018-10-01T10:33:40.067Z,1013.96
2018-10-01T10:35:07.445Z,1013.95
2018-10-01T10:36:34.690Z,1013.93
2018-10-01T10:38:02.249Z,1013.93
2018-10-01T10:39:29.498Z,1013.96
2018-10-01T10:40:56.508Z,1013.97
2018-10-01T10:42:23.599Z,1013.98
2018-10-01T10:43:50.843Z,1013.95
2018-10-01T10:45:18.098Z,1013.92
2018-10-01T10:46:45.550Z,1013.95
2018-10-01T10:48:12.768Z,1013.96
2018-10-01T10:49:40.039Z,1013.96
2018-10-01T10:51:07.614Z,1013.92
2018-10-01T10:52:34.987Z,1013.93
2018-10-01T10:54:02.342Z,1013.96
2018-10-01T10:55:29.604Z,1013.93
2018-10-01T10:56:57.086Z,1013.93
2018-10-01T10:58:24.528Z,1013.92
2018-10-01T10:59:52.130Z,1013.92
2018-10-01T11:01:19.290Z,1013.90
2018-10-01T11:02:46.730Z,1013.92
2018-10-01T11:04:13.984Z,1013.99
2018-10-01T11:05:41.280Z,1014.01
2018-10-01T11:07:08.909Z,1014.06
2018-10-01T11:08:36.101Z,1014.05
2018-10-01T11:10:03.661Z,1014.09
2018-10-01T11:11:31.029Z,1014.05
2018-10-01T11:12:58.358Z,1014.09
2018-10-01T11:14:25.894Z,1014.12
2018-10-01T11:15:53.113Z,1014.07
2018-10-01T11:17:20.635Z,1014.07
2018-10-01T11:18:47.955Z,1014.08
2018-10-01T11:20:15.160Z,1014.11
2018-10-01T11:21:42.711Z,1014.09
2018-10-01T11:23:09.826Z,1014.07
2018-10-01T11:24:37.214Z,1014.04
2018-10-01T11:26:04.632Z,1014.02
2018-10-01T11:27:32.231Z,1014.03
2018-10-01T11:28:59.633Z,1014.03
2018-10-01T11:30:27.110Z,1014.04
2018-10-01T11:31:54.656Z,1014.07
2018-10-01T11:33:21.746Z,1014.07
2018-10-01T11:34:49.256Z,1014.11
2018-10-01T11:36:16.536Z,1014.08
2018-10-01T11:37:43.587Z,1014.06
2018-10-01T11:39:11.071Z,1014.06
2018-10-01T11:40:38.309Z,1014.03
2018-10-01T11:42:05.902Z,1014.02
2018-10-01T11:43:33.258Z,1014.01
2018-10-01T11:45:00.654Z,1014.01
2018-10-01T11:46:27.541Z,1014.00
2018-10-01T11:47:54.732Z,1013.99
2018-10-01T11:49:22.120Z,1014.00
2018-10-01T11:50:49.329Z,1013.98
2018-10-01T11:52:16.886Z,1013.99
2018-10-01T11:53:44.173Z,1013.96
2018-10-01T11:55:11.518Z,1013.92
2018-10-01T11:56:38.846Z,1013.89
2018-10-01T11:58:05.192Z,1013.92
2018-10-01T11:59:32.518Z,1013.90
2018-10-01T12:00:59.743Z,1013.93
2018-10-01T12:02:27.188Z,1013.91
2018-10-01T12:03:54.695Z,1013.92
2018-10-01T12:05:22.019Z,1013.90
2018-10-01T12:06:49.376Z,1013.90
2018-10-01T12:08:16.851Z,1013.85
2018-10-01T12:09:44.426Z,1013.85
2018-10-01T12:11:11.789Z,1013.83
2018-10-01T12:12:39.098Z,1013.85
2018-10-01T12:14:06.457Z,1013.83
2018-10-01T12:15:34.050Z,1013.84
2018-10-01T12:17:01.303Z,1013.83
2018-10-01T12:18:28.728Z,1013.83
2018-10-01T12:19:55.966Z,1013.83
2018-10-01T12:21:23.444Z,1013.83
2018-10-01T12:22:50.787Z,1013.89
2018-10-01T12:24:18.045Z,1013.90
2018-10-01T12:25:45.155Z,1013.86
2018-10-01T12:27:12.530Z,1013.89
2018-10-01T12:28:39.957Z,1013.91
2018-10-01T12:30:07.315Z,1013.91
2018-10-01T12:31:34.631Z,1013.89
2018-10-01T12:33:02.047Z,1013.90
2018-10-01T12:34:29.513Z,1013.88
2018-10-01T12:35:56.962Z,1013.89
2018-10-01T12:37:24.469Z,1013.85
2018-10-01T12:38:51.838Z,1013.84
2018-10-01T12:40:19.087Z,1013.84
2018-10-01T12:41:46.205Z,1013.88
2018-10-01T12:43:13.558Z,1013.86
2018-10-01T12:44:40.921Z,1013.86
2018-10-01T12:46:08.287Z,1013.84
2018-10-01T12:47:35.727Z,1013.84
2018-10-01T12:49:03.253Z,1013.82
2018-10-01T12:50:30.660Z,1013.82
2018-10-01T12:51:57.939Z,1013.79
2018-10-01T12:53:25.504Z,1013.80
2018-10-01T12:54:52.655Z,1013.77
2018-10-01T12:56:20.161Z,1013.77
2018-10-01T12:57:47.801Z,1013.75
2018-10-01T12:59:14.926Z,1013.72
2018-10-01T13:00:42.291Z,1013.75
2018-10-01T13:02:09.382Z,1013.79
2018-10-01T13:03:36.851Z,1013.77
2018-10-01T13:05:04.358Z,1013.78
2018-10-01T13:06:32.107Z,1013.82
2018-10-01T13:07:59.489Z,1013.83
2018-10-01T13:09:26.896Z,1013.85
2018-10-01T13:10:54.194Z,1013.89
2018-10-01T13:12:21.662Z,1013.88
2018-10-01T13:13:48.985Z,1013.88
2018-10-01T13:15:16.412Z,1013.88
2018-10-01T13:16:44.051Z,1013.90
2018-10-01T13:18:11.149Z,1013.87
2018-10-01T13:19:38.558Z,1013.90
2018-10-01T13:21:06.223Z,1013.89
2018-10-01T13:22:33.622Z,1013.90
2018-10-01T13:24:01.148Z,1013.91
2018-10-01T13:25:28.664Z,1013.93
2018-10-01T13:26:55.726Z,1013.92
2018-10-01T13:28:23.290Z,1013.94
2018-10-01T13:29:50.742Z,1013.91
2018-10-01T13:31:18.145Z,1013.90
2018-10-01T13:32:45.437Z,1013.90
2018-10-01T13:34:12.773Z,1013.89
2018-10-01T13:35:39.968Z,1013.90
2018-10-01T13:37:07.500Z,1013.88
2018-10-01T13:38:34.931Z,1013.89
2018-10-01T13:40:02.269Z,1013.95
2018-10-01T13:41:29.869Z,1013.97
2018-10-01T13:42:57.244Z,1013.97
2018-10-01T13:44:24.624Z,1014.00
2018-10-01T13:45:51.939Z,1014.01
2018-10-01T13:47:19.378Z,1014.02
2018-10-01T13:48:47.082Z,1014.07
2018-10-01T13:50:14.494Z,1014.11
2018-10-01T13:51:41.804Z,1014.18
2018-10-01T13:53:08.837Z,1014.19
2018-10-01T13:54:37.547Z,1014.21
2018-10-01T13:56:03.945Z,1014.25
2018-10-01T13:57:30.841Z,1014.32
2018-10-01T13:58:58.252Z,1014.37
2018-10-01T14:00:25.742Z,1014.42
2018-10-01T14:01:53.334Z,1014.45
2018-10-01T14:03:20.791Z,1014.46
2018-10-01T14:04:48.275Z,1014.44
2018-10-01T14:06:15.350Z,1014.40
2018-10-01T14:07:42.586Z,1014.38
2018-10-01T14:09:09.782Z,1014.35
2018-10-01T14:10:36.823Z,1014.35
2018-10-01T14:12:04.332Z,1014.25
2018-10-01T14:13:31.674Z,1014.27
2018-10-01T14:14:59.125Z,1014.23
2018-10-01T14:16:26.051Z,1014.23
2018-10-01T14:17:53.182Z,1014.23
2018-10-01T14:19:20.526Z,1014.19
2018-10-01T14:20:47.557Z,1014.23
2018-10-01T14:22:14.948Z,1014.25
2018-10-01T14:23:42.319Z,1014.27
2018-10-01T14:25:09.646Z,1014.28
2018-10-01T14:26:36.808Z,1014.32
2018-10-01T14:28:04.008Z,1014.30
2018-10-01T14:29:31.571Z,1014.33
2018-10-01T14:30:59.225Z,1014.32
2018-10-01T14:32:26.661Z,1014.36
2018-10-01T14:33:54.002Z,1014.40
2018-10-01T14:35:21.381Z,1014.40
2018-10-01T14:36:48.595Z,1014.42
2018-10-01T14:38:15.825Z,1014.44
2018-10-01T14:39:43.273Z,1014.45
2018-10-01T14:41:10.546Z,1014.44
2018-10-01T14:42:37.957Z,1014.44
2018-10-01T14:44:05.321Z,1014.43
2018-10-01T14:45:32.517Z,1014.44
2018-10-01T14:46:59.755Z,1014.44
2018-10-01T14:48:27.495Z,1014.45
2018-10-01T14:49:54.701Z,1014.45
2018-10-01T14:51:21.959Z,1014.44
2018-10-01T14:52:49.227Z,1014.46
2018-10-01T14:54:16.788Z,1014.47
2018-10-01T14:55:43.946Z,1014.48
2018-10-01T14:57:11.396Z,1014.49
2018-10-01T14:58:38.506Z,1014.54
2018-10-01T15:00:05.893Z,1014.51
2018-10-01T15:01:33.315Z,1014.55
2018-10-01T15:03:00.811Z,1014.57
2018-10-01T15:04:28.234Z,1014.58
2018-10-01T15:05:55.722Z,1014.63
2018-10-01T15:07:23.158Z,1014.65
2018-10-01T15:08:50.560Z,1014.64
2018-10-01T15:10:18.124Z,1014.68
2018-10-01T15:11:45.292Z,1014.68
2018-10-01T15:13:12.496Z,1014.67
2018-10-01T15:14:39.830Z,1014.66
2018-10-01T15:16:06.996Z,1014.71
2018-10-01T15:17:34.469Z,1014.70
2018-10-01T15:19:01.893Z,1014.67
2018-10-01T15:20:29.284Z,1014.66
2018-10-01T15:21:56.639Z,1014.67
2018-10-01T15:23:24.053Z,1014.68
2018-10-01T15:24:51.444Z,1014.71
2018-10-01T15:26:18.931Z,1014.74
2018-10-01T15:27:46.507Z,1014.74
2018-10-01T15:29:13.800Z,1014.74
2018-10-01T15:30:41.337Z,1014.74
2018-10-01T15:32:08.601Z,1014.73
2018-10-01T15:33:36.009Z,1014.75
2018-10-01T15:35:03.442Z,1014.78
2018-10-01T15:36:30.746Z,1014.78
2018-10-01T15:37:58.385Z,1014.80
2018-10-01T15:39:25.652Z,1014.80
2018-10-01T15:40:53.109Z,1014.79
2018-10-01T15:42:20.500Z,1014.84
2018-10-01T15:43:48.022Z,1014.84
2018-10-01T15:45:15.424Z,1014.88
2018-10-01T15:46:42.661Z,1014.89
2018-10-01T15:48:09.910Z,1014.90
2018-10-01T15:49:37.393Z,1014.93
2018-10-01T15:51:04.798Z,1015.00
2018-10-01T15:52:32.166Z,1015.01
2018-10-01T15:53:59.506Z,1015.03
2018-10-01T15:55:26.877Z,1015.04
2018-10-01T15:56:54.396Z,1015.04
2018-10-01T15:58:21.961Z,1015.06
2018-10-01T15:59:49.186Z,1015.07
2018-10-01T16:01:16.455Z,1015.08
2018-10-01T16:02:43.798Z,1015.06
2018-10-01T16:04:11.299Z,1015.08
2018-10-01T16:05:38.584Z,1015.09
2018-10-01T16:07:05.967Z,1015.10
2018-10-01T16:08:33.275Z,1015.11
2018-10-01T16:10:00.603Z,1015.12
2018-10-01T16:11:28.371Z,1015.15
2018-10-01T16:12:55.395Z,1015.19
2018-10-01T16:14:22.821Z,1015.19
2018-10-01T16:15:50.046Z,1015.19
2018-10-01T16:17:17.237Z,1015.21
2018-10-01T16:18:44.798Z,1015.21
2018-10-01T16:20:12.162Z,1015.21
2018-10-01T16:21:39.554Z,1015.24
2018-10-01T16:23:06.850Z,1015.26
2018-10-01T16:24:34.381Z,1015.27
2018-10-01T16:26:01.445Z,1015.29
2018-10-01T16:27:28.574Z,1015.31
2018-10-01T16:28:56.042Z,1015.30
2018-10-01T16:30:23.465Z,1015.32
2018-10-01T16:31:50.717Z,1015.33
2018-10-01T16:33:18.192Z,1015.31
2018-10-01T16:34:45.574Z,1015.34
2018-10-01T16:36:12.904Z,1015.36
2018-10-01T16:37:40.133Z,1015.37
2018-10-01T16:39:07.713Z,1015.34
2018-10-01T16:40:35.088Z,1015.38
2018-10-01T16:42:02.587Z,1015.38
2018-10-01T16:43:29.849Z,1015.39
2018-10-01T16:44:57.278Z,1015.41
2018-10-01T16:46:24.602Z,1015.45
2018-10-01T16:47:52.279Z,1015.48
2018-10-01T16:49:19.724Z,1015.47
2018-10-01T16:50:47.081Z,1015.50
2018-10-01T16:52:14.408Z,1015.51
2018-10-01T16:53:41.821Z,1015.52
2018-10-01T16:55:08.903Z,1015.56
2018-10-01T16:56:36.287Z,1015.57
2018-10-01T16:58:03.680Z,1015.61
2018-10-01T16:59:31.136Z,1015.62
2018-10-01T17:00:58.361Z,1015.64
2018-10-01T17:02:25.733Z,1015.65
2018-10-01T17:03:53.282Z,1015.66
2018-10-01T17:05:20.612Z,1015.65
2018-10-01T17:06:47.946Z,1015.70
2018-10-01T17:08:15.342Z,1015.73
2018-10-01T17:09:42.721Z,1015.74
2018-10-01T17:11:09.940Z,1015.73
2018-10-01T17:12:37.413Z,1015.76
2018-10-01T17:14:04.660Z,1015.77
2018-10-01T17:15:32.276Z,1015.77
2018-10-01T17:16:59.477Z,1015.78
2018-10-01T17:18:26.849Z,1015.79
2018-10-01T17:19:54.030Z,1015.79
2018-10-01T17:21:21.198Z,1015.81
2018-10-01T17:22:48.402Z,1015.84
2018-10-01T17:24:15.847Z,1015.85
2018-10-01T17:25:43.069Z,1015.86
2018-10-01T17:27:10.333Z,1015.86
2018-10-01T17:28:37.478Z,1015.89
2018-10-01T17:30:04.755Z,1015.88
2018-10-01T17:31:32.390Z,1015.92
2018-10-01T17:32:59.770Z,1015.91
2018-10-01T17:34:27.002Z,1015.94
2018-10-01T17:35:54.279Z,1015.96
2018-10-01T17:37:21.607Z,1015.99
2018-10-01T17:38:49.003Z,1016.01
2018-10-01T17:40:16.430Z,1016.03
2018-10-01T17:41:43.916Z,1016.03
2018-10-01T17:43:11.222Z,1016.05
2018-10-01T17:44:38.400Z,1016.06
2018-10-01T17:46:05.921Z,1016.08
2018-10-01T17:47:33.338Z,1016.08
2018-10-01T17:49:00.872Z,1016.09
2018-10-01T17:50:28.269Z,1016.08
2018-10-01T17:51:55.440Z,1016.14
2018-10-01T17:53:22.824Z,1016.17
2018-10-01T17:54:50.290Z,1016.18
2018-10-01T17:56:17.506Z,1016.19
2018-10-01T17:57:44.829Z,1016.21
2018-10-01T17:59:11.937Z,1016.20
2018-10-01T18:00:39.149Z,1016.22
2018-10-01T18:02:06.440Z,1016.23
2018-10-01T18:03:33.713Z,1016.25
2018-10-01T18:05:01.065Z,1016.25
2018-10-01T18:06:28.455Z,1016.27
2018-10-01T18:07:55.600Z,1016.25
2018-10-01T18:09:23.176Z,1016.28
2018-10-01T18:10:50.394Z,1016.30
2018-10-01T18:12:17.910Z,1016.29
2018-10-01T18:13:45.212Z,1016.29
2018-10-01T18:15:12.349Z,1016.30
2018-10-01T18:16:39.625Z,1016.30
2018-10-01T18:18:06.985Z,1016.30
2018-10-01T18:19:34.320Z,1016.31
2018-10-01T18:21:01.536Z,1016.34
2018-10-01T18:22:29.090Z,1016.34
2018-10-01T18:23:56.256Z,1016.38
2018-10-01T18:25:23.612Z,1016.37
2018-10-01T18:26:50.819Z,1016.39
2018-10-01T18:28:18.229Z,1016.44
2018-10-01T18:29:45.504Z,1016.46
2018-10-01T18:31:12.908Z,1016.49
2018-10-01T18:32:40.090Z,1016.48
2018-10-01T18:34:07.379Z,1016.47
2018-10-01T18:35:34.804Z,1016.47
2018-10-01T18:37:02.219Z,1016.51
2018-10-01T18:38:29.451Z,1016.52
2018-10-01T18:39:56.933Z,1016.53
2018-10-01T18:41:24.017Z,1016.55
2018-10-01T18:42:51.133Z,1016.55
2018-10-01T18:44:18.572Z,1016.59
2018-10-01T18:45:45.466Z,1016.58
2018-10-01T18:47:12.952Z,1016.61
2018-10-01T18:48:40.120Z,1016.63
2018-10-01T18:50:07.455Z,1016.64
2018-10-01T18:51:34.776Z,1016.64
2018-10-01T18:53:02.215Z,1016.63
2018-10-01T18:54:29.545Z,1016.63
2018-10-01T18:55:56.717Z,1016.63
2018-10-01T18:57:23.808Z,1016.62
2018-10-01T18:58:51.013Z,1016.58
2018-10-01T19:00:18.455Z,1016.57
2018-10-01T19:01:45.562Z,1016.56
2018-10-01T19:03:12.945Z,1016.59
2018-10-01T19:04:40.151Z,1016.57
2018-10-01T19:06:07.614Z,1016.58
2018-10-01T19:07:34.861Z,1016.58
2018-10-01T19:09:02.162Z,1016.58
2018-10-01T19:10:29.603Z,1016.62
2018-10-01T19:11:57.054Z,1016.61
2018-10-01T19:13:24.213Z,1016.65
2018-10-01T19:14:51.597Z,1016.66
2018-10-01T19:16:18.840Z,1016.67
2018-10-01T19:17:46.306Z,1016.66
2018-10-01T19:19:13.578Z,1016.63
2018-10-01T19:20:40.951Z,1016.65
2018-10-01T19:22:08.467Z,1016.66
2018-10-01T19:23:35.379Z,1016.67
2018-10-01T19:25:02.629Z,1016.67
2018-10-01T19:26:29.736Z,1016.70
2018-10-01T19:27:56.996Z,1016.69
2018-10-01T19:29:24.470Z,1016.72
2018-10-01T19:30:51.694Z,1016.71
2018-10-01T19:32:18.851Z,1016.72
2018-10-01T19:33:46.319Z,1016.71
2018-10-01T19:35:13.576Z,1016.72
2018-10-01T19:36:40.776Z,1016.74
2018-10-01T19:38:08.059Z,1016.74
2018-10-01T19:39:35.369Z,1016.74
2018-10-01T19:41:02.748Z,1016.76
2018-10-01T19:42:30.042Z,1016.76
2018-10-01T19:43:57.354Z,1016.75
2018-10-01T19:45:24.688Z,1016.75
2018-10-01T19:46:51.975Z,1016.73
2018-10-01T19:48:19.257Z,1016.72
2018-10-01T19:49:46.476Z,1016.73
2018-10-01T19:51:13.876Z,1016.75
2018-10-01T19:52:41.058Z,1016.78
2018-10-01T19:54:08.385Z,1016.76
2018-10-01T19:55:35.431Z,1016.78
2018-10-01T19:57:02.740Z,1016.76
2018-10-01T19:58:29.872Z,1016.78
2018-10-01T19:59:56.959Z,1016.77
2018-10-01T20:01:24.262Z,1016.82
2018-10-01T20:02:51.645Z,1016.82
2018-10-01T20:04:18.969Z,1016.86
2018-10-01T20:05:46.084Z,1016.88
2018-10-01T20:07:13.364Z,1016.89
2018-10-01T20:08:40.635Z,1016.88
2018-10-01T20:10:07.922Z,1016.90
2018-10-01T20:11:34.994Z,1016.89
2018-10-01T20:13:02.397Z,1016.90